sensor_id;sensor_type;location;lat;lon;timestamp;P1;durP1;ratioP1;P2;durP2;ratioP2
10651;SDS011;5374;42.742;23.266;2023-02-21T00:01:37;5.90;;;3.53;;
10651;SDS011;5374;42.742;23.266;2023-02-21T00:04:42;5.37;;;4.00;;
10651;SDS011;5374;42.742;23.266;2023-02-21T00:07:48;5.93;;;3.70;;
10651;SDS011;5374;42.742;23.266;2023-02-21T00:10:52;7.10;;;4.13;;
10651;SDS011;5374;42.742;23.266;2023-02-21T00:13:57;8.13;;;4.63;;
10651;SDS011;5374;42.742;23.266;2023-02-21T00:17:02;7.83;;;5.03;;
10651;SDS011;5374;42.742;23.266;2023-02-21T00:20:06;8.00;;;5.00;;
10651;SDS011;5374;42.742;23.266;2023-02-21T00:23:13;7.33;;;4.67;;
10651;SDS011;5374;42.742;23.266;2023-02-21T00:26:18;8.60;;;4.37;;
10651;SDS011;5374;42.742;23.266;2023-02-21T00:29:23;6.23;;;4.30;;
10651;SDS011;5374;42.742;23.266;2023-02-21T00:32:29;9.10;;;4.77;;
10651;SDS011;5374;42.742;23.266;2023-02-21T00:35:33;9.43;;;5.03;;
10651;SDS011;5374;42.742;23.266;2023-02-21T00:38:39;6.57;;;4.23;;
10651;SDS011;5374;42.742;23.266;2023-02-21T00:41:44;7.20;;;3.70;;
10651;SDS011;5374;42.742;23.266;2023-02-21T00:44:49;5.03;;;3.43;;
10651;SDS011;5374;42.742;23.266;2023-02-21T00:48:02;5.30;;;3.27;;
10651;SDS011;5374;42.742;23.266;2023-02-21T00:51:07;4.47;;;2.97;;
10651;SDS011;5374;42.742;23.266;2023-02-21T00:54:13;4.40;;;3.00;;
10651;SDS011;5374;42.742;23.266;2023-02-21T00:57:17;7.17;;;5.83;;
10651;SDS011;5374;42.742;23.266;2023-02-21T01:00:25;5.90;;;3.83;;
10651;SDS011;5374;42.742;23.266;2023-02-21T01:03:29;6.40;;;3.10;;
10651;SDS011;5374;42.742;23.266;2023-02-21T01:06:34;4.37;;;2.80;;
10651;SDS011;5374;42.742;23.266;2023-02-21T01:09:40;4.97;;;3.07;;
10651;SDS011;5374;42.742;23.266;2023-02-21T01:12:44;4.47;;;2.67;;
10651;SDS011;5374;42.742;23.266;2023-02-21T01:15:49;6.50;;;2.90;;
10651;SDS011;5374;42.742;23.266;2023-02-21T01:18:53;5.93;;;3.00;;
10651;SDS011;5374;42.742;23.266;2023-02-21T01:21:58;5.93;;;3.37;;
10651;SDS011;5374;42.742;23.266;2023-02-21T01:25:06;5.10;;;3.27;;
10651;SDS011;5374;42.742;23.266;2023-02-21T01:28:13;3.67;;;2.67;;
10651;SDS011;5374;42.742;23.266;2023-02-21T01:31:18;8.73;;;2.60;;
10651;SDS011;5374;42.742;23.266;2023-02-21T01:34:23;4.47;;;2.70;;
10651;SDS011;5374;42.742;23.266;2023-02-21T01:37:28;5.73;;;2.93;;
10651;SDS011;5374;42.742;23.266;2023-02-21T01:40:34;7.67;;;2.90;;
10651;SDS011;5374;42.742;23.266;2023-02-21T01:43:57;6.87;;;2.40;;
10651;SDS011;5374;42.742;23.266;2023-02-21T01:47:02;6.03;;;2.77;;
10651;SDS011;5374;42.742;23.266;2023-02-21T01:50:09;6.10;;;2.90;;
10651;SDS011;5374;42.742;23.266;2023-02-21T01:53:20;4.70;;;2.60;;
10651;SDS011;5374;42.742;23.266;2023-02-21T01:56:29;3.73;;;2.70;;
10651;SDS011;5374;42.742;23.266;2023-02-21T01:59:34;3.83;;;2.87;;
10651;SDS011;5374;42.742;23.266;2023-02-21T02:02:41;4.40;;;3.00;;
10651;SDS011;5374;42.742;23.266;2023-02-21T02:05:55;3.87;;;2.63;;
10651;SDS011;5374;42.742;23.266;2023-02-21T02:09:15;5.97;;;3.10;;
10651;SDS011;5374;42.742;23.266;2023-02-21T02:15:45;7.67;;;3.40;;
10651;SDS011;5374;42.742;23.266;2023-02-21T02:22:05;4.53;;;2.90;;
10651;SDS011;5374;42.742;23.266;2023-02-21T02:25:13;4.10;;;2.77;;
10651;SDS011;5374;42.742;23.266;2023-02-21T02:28:25;4.80;;;3.10;;
10651;SDS011;5374;42.742;23.266;2023-02-21T02:31:36;4.67;;;2.70;;
10651;SDS011;5374;42.742;23.266;2023-02-21T02:37:40;3.97;;;2.63;;
10651;SDS011;5374;42.742;23.266;2023-02-21T02:40:34;5.47;;;2.80;;
10651;SDS011;5374;42.742;23.266;2023-02-21T02:43:29;5.00;;;2.73;;
10651;SDS011;5374;42.742;23.266;2023-02-21T02:46:18;3.80;;;2.60;;
10651;SDS011;5374;42.742;23.266;2023-02-21T02:49:11;4.07;;;2.57;;
10651;SDS011;5374;42.742;23.266;2023-02-21T02:52:04;6.87;;;2.53;;
10651;SDS011;5374;42.742;23.266;2023-02-21T02:54:57;3.80;;;2.40;;
10651;SDS011;5374;42.742;23.266;2023-02-21T02:57:45;3.37;;;2.10;;
10651;SDS011;5374;42.742;23.266;2023-02-21T03:00:33;4.00;;;2.20;;
10651;SDS011;5374;42.742;23.266;2023-02-21T03:03:38;4.13;;;2.60;;
10651;SDS011;5374;42.742;23.266;2023-02-21T03:06:38;3.47;;;2.20;;
10651;SDS011;5374;42.742;23.266;2023-02-21T03:09:41;4.27;;;2.60;;
10651;SDS011;5374;42.742;23.266;2023-02-21T03:12:37;4.00;;;2.50;;
10651;SDS011;5374;42.742;23.266;2023-02-21T03:15:32;4.53;;;2.83;;
10651;SDS011;5374;42.742;23.266;2023-02-21T03:18:26;2.83;;;2.20;;
10651;SDS011;5374;42.742;23.266;2023-02-21T03:21:16;2.50;;;2.30;;
10651;SDS011;5374;42.742;23.266;2023-02-21T03:24:09;3.53;;;2.40;;
10651;SDS011;5374;42.742;23.266;2023-02-21T03:27:01;3.10;;;2.23;;
10651;SDS011;5374;42.742;23.266;2023-02-21T03:29:51;7.93;;;4.30;;
10651;SDS011;5374;42.742;23.266;2023-02-21T03:32:44;5.00;;;2.97;;
10651;SDS011;5374;42.742;23.266;2023-02-21T03:35:34;3.83;;;2.67;;
10651;SDS011;5374;42.742;23.266;2023-02-21T03:38:21;5.17;;;2.47;;
10651;SDS011;5374;42.742;23.266;2023-02-21T03:41:08;6.03;;;3.40;;
10651;SDS011;5374;42.742;23.266;2023-02-21T03:43:58;5.07;;;3.37;;
10651;SDS011;5374;42.742;23.266;2023-02-21T03:46:46;4.87;;;3.03;;
10651;SDS011;5374;42.742;23.266;2023-02-21T03:49:33;3.50;;;2.40;;
10651;SDS011;5374;42.742;23.266;2023-02-21T03:52:22;3.90;;;2.57;;
10651;SDS011;5374;42.742;23.266;2023-02-21T03:55:09;3.43;;;2.60;;
10651;SDS011;5374;42.742;23.266;2023-02-21T03:57:56;7.83;;;3.00;;
10651;SDS011;5374;42.742;23.266;2023-02-21T04:00:45;7.03;;;3.33;;
10651;SDS011;5374;42.742;23.266;2023-02-21T04:03:32;7.43;;;3.53;;
10651;SDS011;5374;42.742;23.266;2023-02-21T04:06:25;5.50;;;3.50;;
10651;SDS011;5374;42.742;23.266;2023-02-21T04:09:13;6.27;;;3.50;;
10651;SDS011;5374;42.742;23.266;2023-02-21T04:12:00;6.10;;;3.50;;
10651;SDS011;5374;42.742;23.266;2023-02-21T04:14:47;6.73;;;4.03;;
10651;SDS011;5374;42.742;23.266;2023-02-21T04:17:37;5.73;;;3.83;;
10651;SDS011;5374;42.742;23.266;2023-02-21T04:20:24;7.37;;;3.90;;
10651;SDS011;5374;42.742;23.266;2023-02-21T04:23:13;4.57;;;3.17;;
10651;SDS011;5374;42.742;23.266;2023-02-21T04:26:05;7.37;;;3.47;;
10651;SDS011;5374;42.742;23.266;2023-02-21T04:28:52;7.53;;;3.20;;
10651;SDS011;5374;42.742;23.266;2023-02-21T04:31:39;5.20;;;2.97;;
10651;SDS011;5374;42.742;23.266;2023-02-21T04:34:28;6.43;;;3.70;;
10651;SDS011;5374;42.742;23.266;2023-02-21T04:37:16;5.07;;;4.03;;
10651;SDS011;5374;42.742;23.266;2023-02-21T04:40:18;8.40;;;5.70;;
10651;SDS011;5374;42.742;23.266;2023-02-21T04:43:05;9.07;;;5.73;;
10651;SDS011;5374;42.742;23.266;2023-02-21T04:45:52;9.70;;;5.80;;
10651;SDS011;5374;42.742;23.266;2023-02-21T04:48:49;7.23;;;3.97;;
10651;SDS011;5374;42.742;23.266;2023-02-21T04:52:02;6.13;;;3.50;;
10651;SDS011;5374;42.742;23.266;2023-02-21T04:54:59;7.10;;;2.73;;
10651;SDS011;5374;42.742;23.266;2023-02-21T04:58:13;6.43;;;3.50;;
10651;SDS011;5374;42.742;23.266;2023-02-21T05:01:21;5.20;;;3.30;;
10651;SDS011;5374;42.742;23.266;2023-02-21T05:04:21;5.00;;;3.40;;
10651;SDS011;5374;42.742;23.266;2023-02-21T05:11:05;3.67;;;2.80;;
10651;SDS011;5374;42.742;23.266;2023-02-21T05:14:38;5.37;;;3.60;;
10651;SDS011;5374;42.742;23.266;2023-02-21T05:18:09;5.33;;;3.40;;
10651;SDS011;5374;42.742;23.266;2023-02-21T05:20:59;6.33;;;3.13;;
10651;SDS011;5374;42.742;23.266;2023-02-21T05:23:47;5.47;;;2.70;;
10651;SDS011;5374;42.742;23.266;2023-02-21T05:26:41;12.57;;;4.33;;
10651;SDS011;5374;42.742;23.266;2023-02-21T05:29:28;9.67;;;6.40;;
10651;SDS011;5374;42.742;23.266;2023-02-21T05:32:15;9.50;;;6.93;;
10651;SDS011;5374;42.742;23.266;2023-02-21T05:35:04;5.10;;;3.30;;
10651;SDS011;5374;42.742;23.266;2023-02-21T05:37:52;5.53;;;2.80;;
10651;SDS011;5374;42.742;23.266;2023-02-21T05:40:41;5.23;;;3.07;;
10651;SDS011;5374;42.742;23.266;2023-02-21T05:43:30;18.97;;;11.87;;
10651;SDS011;5374;42.742;23.266;2023-02-21T05:46:19;12.80;;;7.67;;
10651;SDS011;5374;42.742;23.266;2023-02-21T05:49:09;11.30;;;7.33;;
10651;SDS011;5374;42.742;23.266;2023-02-21T05:51:57;11.30;;;7.43;;
10651;SDS011;5374;42.742;23.266;2023-02-21T05:54:44;19.43;;;13.03;;
10651;SDS011;5374;42.742;23.266;2023-02-21T05:57:37;10.57;;;5.93;;
10651;SDS011;5374;42.742;23.266;2023-02-21T06:00:26;13.07;;;10.40;;
10651;SDS011;5374;42.742;23.266;2023-02-21T06:03:20;9.13;;;6.30;;
10651;SDS011;5374;42.742;23.266;2023-02-21T06:06:17;7.63;;;5.53;;
10651;SDS011;5374;42.742;23.266;2023-02-21T06:09:05;5.93;;;4.43;;
10651;SDS011;5374;42.742;23.266;2023-02-21T06:11:54;13.07;;;9.40;;
10651;SDS011;5374;42.742;23.266;2023-02-21T06:14:43;15.80;;;9.27;;
10651;SDS011;5374;42.742;23.266;2023-02-21T06:17:30;17.53;;;9.43;;
10651;SDS011;5374;42.742;23.266;2023-02-21T06:20:17;16.17;;;7.97;;
10651;SDS011;5374;42.742;23.266;2023-02-21T06:23:04;9.33;;;6.47;;
10651;SDS011;5374;42.742;23.266;2023-02-21T06:25:52;6.57;;;4.17;;
10651;SDS011;5374;42.742;23.266;2023-02-21T06:28:39;8.57;;;4.80;;
10651;SDS011;5374;42.742;23.266;2023-02-21T06:31:27;10.00;;;7.17;;
10651;SDS011;5374;42.742;23.266;2023-02-21T06:34:14;8.10;;;3.97;;
10651;SDS011;5374;42.742;23.266;2023-02-21T06:37:01;8.43;;;5.50;;
10651;SDS011;5374;42.742;23.266;2023-02-21T06:39:49;8.53;;;5.23;;
10651;SDS011;5374;42.742;23.266;2023-02-21T06:42:36;11.50;;;5.07;;
10651;SDS011;5374;42.742;23.266;2023-02-21T06:45:23;8.43;;;5.50;;
10651;SDS011;5374;42.742;23.266;2023-02-21T06:48:14;8.93;;;5.03;;
10651;SDS011;5374;42.742;23.266;2023-02-21T06:51:02;9.83;;;4.80;;
10651;SDS011;5374;42.742;23.266;2023-02-21T06:53:56;11.10;;;5.50;;
10651;SDS011;5374;42.742;23.266;2023-02-21T06:56:43;11.10;;;5.83;;
10651;SDS011;5374;42.742;23.266;2023-02-21T06:59:30;14.70;;;6.50;;
10651;SDS011;5374;42.742;23.266;2023-02-21T07:02:18;17.37;;;6.53;;
10651;SDS011;5374;42.742;23.266;2023-02-21T07:05:07;11.27;;;6.23;;
10651;SDS011;5374;42.742;23.266;2023-02-21T07:07:55;8.17;;;4.67;;
10651;SDS011;5374;42.742;23.266;2023-02-21T07:10:42;8.93;;;4.97;;
10651;SDS011;5374;42.742;23.266;2023-02-21T07:13:29;8.60;;;5.40;;
10651;SDS011;5374;42.742;23.266;2023-02-21T07:16:16;13.73;;;5.87;;
10651;SDS011;5374;42.742;23.266;2023-02-21T07:19:03;9.53;;;5.67;;
10651;SDS011;5374;42.742;23.266;2023-02-21T07:21:52;10.10;;;7.27;;
10651;SDS011;5374;42.742;23.266;2023-02-21T07:24:39;14.57;;;7.40;;
10651;SDS011;5374;42.742;23.266;2023-02-21T07:27:27;10.73;;;7.00;;
10651;SDS011;5374;42.742;23.266;2023-02-21T07:30:15;8.93;;;5.60;;
10651;SDS011;5374;42.742;23.266;2023-02-21T07:33:02;11.60;;;5.83;;
10651;SDS011;5374;42.742;23.266;2023-02-21T07:35:50;14.30;;;8.40;;
10651;SDS011;5374;42.742;23.266;2023-02-21T07:38:38;12.57;;;8.80;;
10651;SDS011;5374;42.742;23.266;2023-02-21T07:41:26;11.27;;;6.80;;
10651;SDS011;5374;42.742;23.266;2023-02-21T07:44:13;16.00;;;6.60;;
10651;SDS011;5374;42.742;23.266;2023-02-21T07:47:00;17.03;;;9.23;;
10651;SDS011;5374;42.742;23.266;2023-02-21T07:49:47;17.67;;;7.83;;
10651;SDS011;5374;42.742;23.266;2023-02-21T07:52:34;39.90;;;7.23;;
10651;SDS011;5374;42.742;23.266;2023-02-21T07:55:23;37.60;;;6.27;;
10651;SDS011;5374;42.742;23.266;2023-02-21T07:58:10;18.43;;;6.20;;
10651;SDS011;5374;42.742;23.266;2023-02-21T08:00:57;21.13;;;4.77;;
10651;SDS011;5374;42.742;23.266;2023-02-21T08:03:44;15.57;;;4.73;;
10651;SDS011;5374;42.742;23.266;2023-02-21T08:06:32;11.37;;;5.03;;
10651;SDS011;5374;42.742;23.266;2023-02-21T08:09:20;9.67;;;4.80;;
10651;SDS011;5374;42.742;23.266;2023-02-21T08:12:09;15.37;;;4.47;;
10651;SDS011;5374;42.742;23.266;2023-02-21T08:14:56;21.83;;;3.77;;
10651;SDS011;5374;42.742;23.266;2023-02-21T08:17:43;28.70;;;5.07;;
10651;SDS011;5374;42.742;23.266;2023-02-21T08:20:33;50.70;;;5.93;;
10651;SDS011;5374;42.742;23.266;2023-02-21T08:23:21;35.50;;;4.90;;
10651;SDS011;5374;42.742;23.266;2023-02-21T08:26:09;36.97;;;5.40;;
10651;SDS011;5374;42.742;23.266;2023-02-21T08:28:58;22.43;;;4.80;;
10651;SDS011;5374;42.742;23.266;2023-02-21T08:31:45;13.23;;;3.37;;
10651;SDS011;5374;42.742;23.266;2023-02-21T08:34:32;5.37;;;3.23;;
10651;SDS011;5374;42.742;23.266;2023-02-21T08:37:20;4.57;;;3.13;;
10651;SDS011;5374;42.742;23.266;2023-02-21T08:40:07;5.63;;;2.50;;
10651;SDS011;5374;42.742;23.266;2023-02-21T08:42:55;12.67;;;2.83;;
10651;SDS011;5374;42.742;23.266;2023-02-21T08:45:45;6.67;;;2.07;;
10651;SDS011;5374;42.742;23.266;2023-02-21T08:48:32;4.13;;;2.00;;
10651;SDS011;5374;42.742;23.266;2023-02-21T08:51:23;6.53;;;2.43;;
10651;SDS011;5374;42.742;23.266;2023-02-21T08:54:10;7.57;;;2.50;;
10651;SDS011;5374;42.742;23.266;2023-02-21T08:56:58;2.50;;;2.07;;
10651;SDS011;5374;42.742;23.266;2023-02-21T08:59:45;4.23;;;2.20;;
10651;SDS011;5374;42.742;23.266;2023-02-21T09:02:33;8.67;;;2.90;;
10651;SDS011;5374;42.742;23.266;2023-02-21T09:05:23;8.97;;;3.63;;
10651;SDS011;5374;42.742;23.266;2023-02-21T09:08:11;10.83;;;3.43;;
10651;SDS011;5374;42.742;23.266;2023-02-21T09:10:59;4.90;;;2.80;;
10651;SDS011;5374;42.742;23.266;2023-02-21T09:13:46;4.23;;;2.80;;
10651;SDS011;5374;42.742;23.266;2023-02-21T09:16:34;7.40;;;3.20;;
10651;SDS011;5374;42.742;23.266;2023-02-21T09:19:22;9.40;;;3.00;;
10651;SDS011;5374;42.742;23.266;2023-02-21T09:22:09;7.23;;;2.37;;
10651;SDS011;5374;42.742;23.266;2023-02-21T09:24:57;11.23;;;2.43;;
10651;SDS011;5374;42.742;23.266;2023-02-21T09:27:44;8.87;;;3.83;;
10651;SDS011;5374;42.742;23.266;2023-02-21T09:30:31;7.63;;;3.40;;
10651;SDS011;5374;42.742;23.266;2023-02-21T09:33:18;8.73;;;3.20;;
10651;SDS011;5374;42.742;23.266;2023-02-21T09:36:08;6.90;;;2.57;;
10651;SDS011;5374;42.742;23.266;2023-02-21T09:38:56;4.40;;;2.60;;
10651;SDS011;5374;42.742;23.266;2023-02-21T09:41:43;7.40;;;2.47;;
10651;SDS011;5374;42.742;23.266;2023-02-21T09:44:30;27.00;;;3.50;;
10651;SDS011;5374;42.742;23.266;2023-02-21T09:47:23;8.87;;;2.40;;
10651;SDS011;5374;42.742;23.266;2023-02-21T09:50:14;5.47;;;2.50;;
10651;SDS011;5374;42.742;23.266;2023-02-21T09:53:05;4.17;;;2.30;;
10651;SDS011;5374;42.742;23.266;2023-02-21T09:55:56;6.93;;;2.40;;
10651;SDS011;5374;42.742;23.266;2023-02-21T09:58:45;8.17;;;3.33;;
10651;SDS011;5374;42.742;23.266;2023-02-21T10:01:38;8.10;;;3.13;;
10651;SDS011;5374;42.742;23.266;2023-02-21T10:04:39;4.07;;;2.60;;
10651;SDS011;5374;42.742;23.266;2023-02-21T10:07:42;14.47;;;4.97;;
10651;SDS011;5374;42.742;23.266;2023-02-21T10:10:38;6.70;;;2.70;;
10651;SDS011;5374;42.742;23.266;2023-02-21T10:13:33;5.77;;;3.03;;
10651;SDS011;5374;42.742;23.266;2023-02-21T10:16:26;4.60;;;2.57;;
10651;SDS011;5374;42.742;23.266;2023-02-21T10:19:17;5.10;;;2.40;;
10651;SDS011;5374;42.742;23.266;2023-02-21T10:22:12;5.73;;;2.43;;
10651;SDS011;5374;42.742;23.266;2023-02-21T10:25:11;4.83;;;2.50;;
10651;SDS011;5374;42.742;23.266;2023-02-21T10:28:08;4.23;;;2.13;;
10651;SDS011;5374;42.742;23.266;2023-02-21T10:31:03;6.53;;;2.13;;
10651;SDS011;5374;42.742;23.266;2023-02-21T10:33:54;5.67;;;2.00;;
10651;SDS011;5374;42.742;23.266;2023-02-21T10:36:44;12.37;;;2.53;;
10651;SDS011;5374;42.742;23.266;2023-02-21T10:39:33;7.40;;;2.93;;
10651;SDS011;5374;42.742;23.266;2023-02-21T10:42:27;5.20;;;2.27;;
10651;SDS011;5374;42.742;23.266;2023-02-21T10:45:19;6.63;;;2.13;;
10651;SDS011;5374;42.742;23.266;2023-02-21T10:48:10;3.80;;;2.40;;
10651;SDS011;5374;42.742;23.266;2023-02-21T10:51:05;2.83;;;2.17;;
10651;SDS011;5374;42.742;23.266;2023-02-21T10:53:54;5.13;;;2.47;;
10651;SDS011;5374;42.742;23.266;2023-02-21T10:57:06;5.07;;;2.47;;
10651;SDS011;5374;42.742;23.266;2023-02-21T10:59:55;5.80;;;1.80;;
10651;SDS011;5374;42.742;23.266;2023-02-21T11:02:44;12.03;;;3.10;;
10651;SDS011;5374;42.742;23.266;2023-02-21T11:05:35;5.50;;;2.23;;
10651;SDS011;5374;42.742;23.266;2023-02-21T11:08:33;3.83;;;2.03;;
10651;SDS011;5374;42.742;23.266;2023-02-21T11:11:35;4.70;;;2.00;;
10651;SDS011;5374;42.742;23.266;2023-02-21T11:14:24;4.43;;;1.87;;
10651;SDS011;5374;42.742;23.266;2023-02-21T11:17:14;3.37;;;2.37;;
10651;SDS011;5374;42.742;23.266;2023-02-21T11:20:14;2.10;;;1.67;;
10651;SDS011;5374;42.742;23.266;2023-02-21T11:23:03;4.10;;;1.70;;
10651;SDS011;5374;42.742;23.266;2023-02-21T11:25:56;3.10;;;2.03;;
10651;SDS011;5374;42.742;23.266;2023-02-21T11:28:46;14.90;;;2.97;;
10651;SDS011;5374;42.742;23.266;2023-02-21T11:31:33;2.47;;;1.80;;
10651;SDS011;5374;42.742;23.266;2023-02-21T11:34:20;8.20;;;2.27;;
10651;SDS011;5374;42.742;23.266;2023-02-21T11:37:16;3.47;;;1.93;;
10651;SDS011;5374;42.742;23.266;2023-02-21T11:40:04;4.43;;;1.80;;
10651;SDS011;5374;42.742;23.266;2023-02-21T11:46:12;5.97;;;1.80;;
10651;SDS011;5374;42.742;23.266;2023-02-21T11:49:05;4.33;;;2.00;;
10651;SDS011;5374;42.742;23.266;2023-02-21T11:52:03;9.73;;;2.30;;
10651;SDS011;5374;42.742;23.266;2023-02-21T11:54:56;5.63;;;2.30;;
10651;SDS011;5374;42.742;23.266;2023-02-21T11:57:46;10.10;;;2.73;;
10651;SDS011;5374;42.742;23.266;2023-02-21T12:00:44;2.63;;;1.93;;
10651;SDS011;5374;42.742;23.266;2023-02-21T12:03:50;9.13;;;2.37;;
10651;SDS011;5374;42.742;23.266;2023-02-21T12:06:56;2.87;;;2.20;;
10651;SDS011;5374;42.742;23.266;2023-02-21T12:09:52;3.67;;;2.20;;
10651;SDS011;5374;42.742;23.266;2023-02-21T12:12:49;5.20;;;2.20;;
10651;SDS011;5374;42.742;23.266;2023-02-21T12:15:44;3.00;;;2.60;;
10651;SDS011;5374;42.742;23.266;2023-02-21T12:18:46;3.70;;;2.30;;
10651;SDS011;5374;42.742;23.266;2023-02-21T12:21:56;6.73;;;2.83;;
10651;SDS011;5374;42.742;23.266;2023-02-21T12:24:55;4.87;;;1.87;;
10651;SDS011;5374;42.742;23.266;2023-02-21T12:27:53;6.63;;;3.83;;
10651;SDS011;5374;42.742;23.266;2023-02-21T12:31:00;4.57;;;2.80;;
10651;SDS011;5374;42.742;23.266;2023-02-21T12:34:00;10.60;;;5.10;;
10651;SDS011;5374;42.742;23.266;2023-02-21T12:37:13;14.97;;;3.93;;
10651;SDS011;5374;42.742;23.266;2023-02-21T12:40:13;6.37;;;2.10;;
10651;SDS011;5374;42.742;23.266;2023-02-21T12:43:19;4.90;;;2.27;;
10651;SDS011;5374;42.742;23.266;2023-02-21T12:46:26;2.03;;;1.67;;
10651;SDS011;5374;42.742;23.266;2023-02-21T12:49:20;2.10;;;1.60;;
10651;SDS011;5374;42.742;23.266;2023-02-21T12:52:13;2.97;;;1.80;;
10651;SDS011;5374;42.742;23.266;2023-02-21T12:55:03;9.23;;;2.10;;
10651;SDS011;5374;42.742;23.266;2023-02-21T12:57:58;3.90;;;3.00;;
10651;SDS011;5374;42.742;23.266;2023-02-21T13:00:50;7.00;;;2.33;;
10651;SDS011;5374;42.742;23.266;2023-02-21T13:03:47;6.50;;;1.60;;
10651;SDS011;5374;42.742;23.266;2023-02-21T13:06:42;3.77;;;1.83;;
10651;SDS011;5374;42.742;23.266;2023-02-21T13:09:34;2.30;;;1.83;;
10651;SDS011;5374;42.742;23.266;2023-02-21T13:12:24;2.70;;;1.70;;
10651;SDS011;5374;42.742;23.266;2023-02-21T13:15:15;3.63;;;1.80;;
10651;SDS011;5374;42.742;23.266;2023-02-21T13:18:08;3.27;;;1.90;;
10651;SDS011;5374;42.742;23.266;2023-02-21T13:21:03;4.33;;;1.90;;
10651;SDS011;5374;42.742;23.266;2023-02-21T13:24:03;14.37;;;2.87;;
10651;SDS011;5374;42.742;23.266;2023-02-21T13:27:38;9.10;;;2.20;;
10651;SDS011;5374;42.742;23.266;2023-02-21T13:30:37;7.17;;;2.20;;
10651;SDS011;5374;42.742;23.266;2023-02-21T13:33:28;5.00;;;2.10;;
10651;SDS011;5374;42.742;23.266;2023-02-21T13:36:24;3.57;;;2.03;;
10651;SDS011;5374;42.742;23.266;2023-02-21T13:39:14;5.93;;;2.00;;
10651;SDS011;5374;42.742;23.266;2023-02-21T13:42:06;6.80;;;1.87;;
10651;SDS011;5374;42.742;23.266;2023-02-21T13:45:04;4.67;;;1.60;;
10651;SDS011;5374;42.742;23.266;2023-02-21T13:54:37;7.90;;;2.87;;
10651;SDS011;5374;42.742;23.266;2023-02-21T13:58:22;5.23;;;1.60;;
10651;SDS011;5374;42.742;23.266;2023-02-21T14:07:53;6.03;;;1.70;;
10651;SDS011;5374;42.742;23.266;2023-02-21T14:10:44;7.23;;;2.10;;
10651;SDS011;5374;42.742;23.266;2023-02-21T14:13:34;10.30;;;3.17;;
10651;SDS011;5374;42.742;23.266;2023-02-21T14:16:25;7.83;;;2.60;;
10651;SDS011;5374;42.742;23.266;2023-02-21T14:19:19;10.13;;;3.10;;
10651;SDS011;5374;42.742;23.266;2023-02-21T14:22:12;6.37;;;2.07;;
10651;SDS011;5374;42.742;23.266;2023-02-21T14:25:06;5.27;;;2.30;;
10651;SDS011;5374;42.742;23.266;2023-02-21T14:28:01;7.53;;;2.70;;
10651;SDS011;5374;42.742;23.266;2023-02-21T14:34:49;4.27;;;2.50;;
10651;SDS011;5374;42.742;23.266;2023-02-21T14:37:40;10.00;;;4.70;;
10651;SDS011;5374;42.742;23.266;2023-02-21T14:40:39;3.73;;;2.30;;
10651;SDS011;5374;42.742;23.266;2023-02-21T14:43:38;6.23;;;1.90;;
10651;SDS011;5374;42.742;23.266;2023-02-21T14:46:48;5.03;;;2.53;;
10651;SDS011;5374;42.742;23.266;2023-02-21T14:50:01;4.37;;;2.43;;
10651;SDS011;5374;42.742;23.266;2023-02-21T14:56:42;6.97;;;2.17;;
10651;SDS011;5374;42.742;23.266;2023-02-21T15:02:52;8.47;;;3.40;;
10651;SDS011;5374;42.742;23.266;2023-02-21T15:05:52;6.00;;;3.60;;
10651;SDS011;5374;42.742;23.266;2023-02-21T15:08:46;131.10;;;80.80;;
10651;SDS011;5374;42.742;23.266;2023-02-21T15:11:34;12.53;;;6.17;;
10651;SDS011;5374;42.742;23.266;2023-02-21T15:14:25;4.70;;;3.67;;
10651;SDS011;5374;42.742;23.266;2023-02-21T15:17:16;2.97;;;2.57;;
10651;SDS011;5374;42.742;23.266;2023-02-21T15:20:12;9.97;;;3.50;;
10651;SDS011;5374;42.742;23.266;2023-02-21T15:23:01;8.80;;;3.30;;
10651;SDS011;5374;42.742;23.266;2023-02-21T15:25:57;6.13;;;4.10;;
10651;SDS011;5374;42.742;23.266;2023-02-21T15:29:01;7.50;;;3.60;;
10651;SDS011;5374;42.742;23.266;2023-02-21T15:31:53;11.77;;;4.10;;
10651;SDS011;5374;42.742;23.266;2023-02-21T15:34:42;6.83;;;3.30;;
10651;SDS011;5374;42.742;23.266;2023-02-21T15:37:33;9.87;;;7.50;;
10651;SDS011;5374;42.742;23.266;2023-02-21T15:40:23;7.43;;;5.90;;
10651;SDS011;5374;42.742;23.266;2023-02-21T15:43:23;10.50;;;5.30;;
10651;SDS011;5374;42.742;23.266;2023-02-21T15:46:16;16.00;;;7.20;;
10651;SDS011;5374;42.742;23.266;2023-02-21T15:49:10;26.17;;;10.23;;
10651;SDS011;5374;42.742;23.266;2023-02-21T15:52:04;33.13;;;14.77;;
10651;SDS011;5374;42.742;23.266;2023-02-21T15:58:02;57.10;;;22.93;;
10651;SDS011;5374;42.742;23.266;2023-02-21T16:01:02;70.73;;;32.37;;
10651;SDS011;5374;42.742;23.266;2023-02-21T16:03:54;95.33;;;54.53;;
10651;SDS011;5374;42.742;23.266;2023-02-21T16:07:01;109.57;;;46.17;;
10651;SDS011;5374;42.742;23.266;2023-02-21T16:09:56;101.30;;;44.17;;
10651;SDS011;5374;42.742;23.266;2023-02-21T16:12:45;112.00;;;48.27;;
10651;SDS011;5374;42.742;23.266;2023-02-21T16:15:34;121.90;;;53.27;;
10651;SDS011;5374;42.742;23.266;2023-02-21T16:18:25;79.57;;;35.80;;
10651;SDS011;5374;42.742;23.266;2023-02-21T16:21:20;55.00;;;23.73;;
10651;SDS011;5374;42.742;23.266;2023-02-21T16:27:16;21.50;;;9.07;;
10651;SDS011;5374;42.742;23.266;2023-02-21T16:30:04;50.20;;;26.60;;
10651;SDS011;5374;42.742;23.266;2023-02-21T16:32:53;28.57;;;10.20;;
10651;SDS011;5374;42.742;23.266;2023-02-21T16:35:45;17.50;;;8.07;;
10651;SDS011;5374;42.742;23.266;2023-02-21T16:38:34;12.63;;;6.43;;
10651;SDS011;5374;42.742;23.266;2023-02-21T16:41:22;16.97;;;7.57;;
10651;SDS011;5374;42.742;23.266;2023-02-21T16:44:10;22.97;;;8.53;;
10651;SDS011;5374;42.742;23.266;2023-02-21T16:46:57;12.83;;;6.83;;
10651;SDS011;5374;42.742;23.266;2023-02-21T16:49:46;12.30;;;6.30;;
10651;SDS011;5374;42.742;23.266;2023-02-21T16:52:33;17.23;;;7.07;;
10651;SDS011;5374;42.742;23.266;2023-02-21T16:55:22;12.13;;;6.90;;
10651;SDS011;5374;42.742;23.266;2023-02-21T16:58:15;12.00;;;7.87;;
10651;SDS011;5374;42.742;23.266;2023-02-21T17:01:10;16.37;;;8.77;;
10651;SDS011;5374;42.742;23.266;2023-02-21T17:04:08;19.70;;;9.87;;
10651;SDS011;5374;42.742;23.266;2023-02-21T17:07:01;19.33;;;10.23;;
10651;SDS011;5374;42.742;23.266;2023-02-21T17:09:50;21.77;;;11.20;;
10651;SDS011;5374;42.742;23.266;2023-02-21T17:12:39;22.30;;;11.50;;
10651;SDS011;5374;42.742;23.266;2023-02-21T17:15:26;39.13;;;15.97;;
10651;SDS011;5374;42.742;23.266;2023-02-21T17:18:13;61.20;;;27.87;;
10651;SDS011;5374;42.742;23.266;2023-02-21T17:21:01;49.57;;;24.70;;
10651;SDS011;5374;42.742;23.266;2023-02-21T17:23:48;47.90;;;23.47;;
10651;SDS011;5374;42.742;23.266;2023-02-21T17:26:35;46.10;;;25.37;;
10651;SDS011;5374;42.742;23.266;2023-02-21T17:29:23;42.47;;;24.30;;
10651;SDS011;5374;42.742;23.266;2023-02-21T17:32:11;109.10;;;61.33;;
10651;SDS011;5374;42.742;23.266;2023-02-21T17:34:58;81.93;;;47.87;;
10651;SDS011;5374;42.742;23.266;2023-02-21T17:37:45;67.13;;;34.73;;
10651;SDS011;5374;42.742;23.266;2023-02-21T17:40:34;41.60;;;22.47;;
10651;SDS011;5374;42.742;23.266;2023-02-21T17:43:21;41.10;;;20.67;;
10651;SDS011;5374;42.742;23.266;2023-02-21T17:46:12;58.67;;;24.73;;
10651;SDS011;5374;42.742;23.266;2023-02-21T17:49:01;70.40;;;34.63;;
10651;SDS011;5374;42.742;23.266;2023-02-21T17:51:49;46.57;;;26.80;;
10651;SDS011;5374;42.742;23.266;2023-02-21T17:54:37;32.83;;;20.10;;
10651;SDS011;5374;42.742;23.266;2023-02-21T17:57:25;28.83;;;19.07;;
10651;SDS011;5374;42.742;23.266;2023-02-21T18:00:15;30.93;;;17.90;;
10651;SDS011;5374;42.742;23.266;2023-02-21T18:03:07;33.57;;;17.27;;
10651;SDS011;5374;42.742;23.266;2023-02-21T18:05:54;21.50;;;16.00;;
10651;SDS011;5374;42.742;23.266;2023-02-21T18:08:44;38.67;;;25.70;;